Time;durP1;ratioP1;P1;durP2;ratioP2;P2;SDS_P1;SDS_P2;PMS_P1;PMS_P2;Temp;Humidity;BMP_temperature;BMP_pressure;BME280_temperature;BME280_humidity;BME280_pressure;Samples;Min_cycle;Max_cycle;Signal;HPM_P1;HPM_P2
2023/11/12 00:00:31;;;;;;;49.50;37.80;;;;;;;6.21;100.00;97690.36;109848;1250;59774;-74
2023/11/12 00:03:18;;;;;;;49.40;37.20;;;;;;;6.18;100.00;97695.52;109836;1249;78217;-75
2023/11/12 00:05:44;;;;;;;51.50;39.50;;;;;;;6.17;100.00;97698.42;109525;1249;59976;-74
2023/11/12 00:08:11;;;;;;;47.80;37.90;;;;;;;6.15;100.00;97700.28;109403;1250;63741;-75
2023/11/12 00:10:38;;;;;;;44.20;34.50;;;;;;;6.15;100.00;97701.86;109825;1249;60029;-75
2023/11/12 00:13:04;;;;;;;46.00;35.40;;;;;;;6.14;100.00;97703.19;109869;1249;59718;-75
2023/11/12 00:15:31;;;;;;;50.50;37.00;;;;;;;6.14;100.00;97704.11;109867;1250;65643;-74
2023/11/12 00:17:58;;;;;;;46.60;36.30;;;;;;;6.13;100.00;97704.15;109790;1249;59829;-74
2023/11/12 00:20:27;;;;;;;45.80;36.40;;;;;;;6.13;100.00;97706.96;109867;1249;63807;-74
2023/11/12 00:22:54;;;;;;;48.40;37.80;;;;;;;6.13;100.00;97711.05;109857;1249;59814;-74
2023/11/12 00:25:21;;;;;;;46.60;36.50;;;;;;;6.12;100.00;97715.49;109868;1249;59771;-74
2023/11/12 00:27:47;;;;;;;44.80;35.30;;;;;;;6.13;100.00;97716.52;109821;1250;66675;-73
2023/11/12 00:30:15;;;;;;;45.90;34.20;;;;;;;6.12;100.00;97717.98;109881;1249;59765;-73
2023/11/12 00:32:42;;;;;;;42.00;33.10;;;;;;;6.10;100.00;97716.35;109849;1250;63762;-73
2023/11/12 00:35:09;;;;;;;40.10;31.80;;;;;;;6.08;100.00;97718.98;109865;1250;59788;-74
2023/11/12 00:37:36;;;;;;;43.00;33.50;;;;;;;6.06;100.00;97721.91;109887;1249;60031;-74
2023/11/12 00:40:03;;;;;;;44.70;33.70;;;;;;;6.05;100.00;97726.04;109848;1250;66840;-74
2023/11/12 00:42:29;;;;;;;43.80;32.30;;;;;;;6.03;100.00;97724.09;109430;1254;59829;-75
2023/11/12 00:44:56;;;;;;;40.80;31.00;;;;;;;6.03;100.00;97722.88;109860;1249;63761;-74
2023/11/12 00:47:22;;;;;;;40.70;29.80;;;;;;;6.02;100.00;97723.98;109823;1250;60158;-75
2023/11/12 00:49:49;;;;;;;41.10;31.90;;;;;;;6.00;100.00;97731.65;109850;1250;59928;-75
2023/11/12 00:52:16;;;;;;;40.80;33.30;;;;;;;5.99;100.00;97732.09;109813;1250;67417;-74
2023/11/12 00:54:42;;;;;;;42.40;33.50;;;;;;;5.99;100.00;97732.64;109868;1250;60267;-75
2023/11/12 00:57:09;;;;;;;42.40;33.10;;;;;;;5.99;100.00;97737.57;109853;1249;62775;-75
2023/11/12 00:59:36;;;;;;;40.60;33.30;;;;;;;5.99;100.00;97740.21;109807;1249;59951;-75
2023/11/12 01:02:03;;;;;;;40.40;33.40;;;;;;;6.00;100.00;97743.36;109858;1250;59666;-75
2023/11/12 01:04:29;;;;;;;40.70;33.40;;;;;;;6.00;100.00;97742.64;109851;1251;68011;-75
2023/11/12 01:06:56;;;;;;;37.90;32.30;;;;;;;5.98;100.00;97744.88;109831;1250;59847;-75
2023/11/12 01:09:23;;;;;;;40.50;30.60;;;;;;;5.97;100.00;97745.66;109858;1250;62788;-75
2023/11/12 01:11:49;;;;;;;39.70;33.30;;;;;;;5.94;100.00;97745.33;109882;1249;59992;-75
2023/11/12 01:14:16;;;;;;;40.20;32.80;;;;;;;5.93;100.00;97745.73;109833;1250;59934;-75
2023/11/12 01:16:43;;;;;;;37.70;32.00;;;;;;;5.93;100.00;97753.30;109858;1250;66899;-75
2023/11/12 01:19:10;;;;;;;40.30;33.80;;;;;;;5.92;100.00;97752.98;109869;1249;60025;-74
2023/11/12 01:21:36;;;;;;;37.70;32.10;;;;;;;5.92;100.00;97754.73;109434;1250;64065;-74
2023/11/12 01:24:03;;;;;;;37.10;31.70;;;;;;;5.93;100.00;97751.20;109813;1249;59918;-75
2023/11/12 01:26:30;;;;;;;37.60;31.00;;;;;;;5.93;100.00;97752.94;109882;1250;60696;-73
2023/11/12 01:28:56;;;;;;;34.00;29.00;;;;;;;5.92;100.00;97749.28;109868;1249;59753;-74
2023/11/12 01:31:23;;;;;;;36.60;31.10;;;;;;;5.90;100.00;97750.46;109859;1249;59973;-75
2023/11/12 01:33:51;;;;;;;36.20;30.00;;;;;;;5.90;100.00;97750.70;109843;1250;63775;-75
2023/11/12 01:36:18;;;;;;;35.30;30.00;;;;;;;5.89;100.00;97750.02;109521;1250;59872;-75
2023/11/12 01:38:44;;;;;;;32.40;27.80;;;;;;;5.90;100.00;97747.52;109862;1251;59666;-75
2023/11/12 01:41:12;;;;;;;34.80;29.20;;;;;;;5.90;100.00;97747.32;109400;1249;65651;-75
2023/11/12 01:43:39;;;;;;;33.90;28.40;;;;;;;5.92;100.00;97752.99;109851;1249;59778;-75
2023/11/12 01:46:07;;;;;;;37.40;30.10;;;;;;;5.94;100.00;97756.42;109846;1249;63807;-75
2023/11/12 01:48:34;;;;;;;34.70;29.10;;;;;;;5.93;100.00;97762.27;109871;1250;59775;-75
2023/11/12 01:51:04;;;;;;;36.80;29.30;;;;;;;5.94;100.00;97763.81;109844;1249;59872;-75
2023/11/12 01:53:34;;;;;;;36.80;31.90;;;;;;;5.93;100.00;97763.85;109846;1250;65203;-75
2023/11/12 01:56:03;;;;;;;36.00;30.20;;;;;;;5.91;100.00;97766.45;109849;1249;60231;-74
2023/11/12 01:58:30;;;;;;;34.40;28.90;;;;;;;5.89;100.00;97770.11;109859;1250;63073;-73
2023/11/12 02:00:58;;;;;;;32.80;28.80;;;;;;;5.88;100.00;97769.86;109845;1249;59753;-74
2023/11/12 02:03:26;;;;;;;33.80;29.80;;;;;;;5.87;100.00;97766.02;109871;1250;60008;-74
2023/11/12 02:05:53;;;;;;;33.60;28.50;;;;;;;5.85;100.00;97768.95;109850;1249;68029;-74
2023/11/12 02:08:21;;;;;;;33.60;29.80;;;;;;;5.84;100.00;97774.52;109824;1251;59867;-74
2023/11/12 02:10:50;;;;;;;33.90;30.20;;;;;;;5.82;100.00;97769.67;109539;1249;63789;-74
2023/11/12 02:13:17;;;;;;;36.10;28.80;;;;;;;5.81;100.00;97767.62;109470;1249;59813;-74
2023/11/12 02:15:46;;;;;;;33.50;29.60;;;;;;;5.80;100.00;97770.52;109819;1249;59667;-74
2023/11/12 02:18:13;;;;;;;31.90;28.30;;;;;;;5.79;100.00;97772.23;109861;1250;67950;-74
2023/11/12 02:20:44;;;;;;;33.60;29.90;;;;;;;5.78;100.00;97773.73;109855;1250;60009;-74
2023/11/12 02:23:14;;;;;;;35.40;31.10;;;;;;;5.78;100.00;97773.35;109559;1249;62949;-74
2023/11/12 02:25:44;;;;;;;34.70;28.80;;;;;;;5.78;100.00;97777.39;109840;1249;59861;-74
2023/11/12 02:28:14;;;;;;;31.30;28.00;;;;;;;5.77;100.00;97781.14;109839;1250;59858;-74
2023/11/12 02:30:41;;;;;;;27.80;24.50;;;;;;;5.76;100.00;97779.52;109829;1250;66955;-74
2023/11/12 02:33:08;;;;;;;26.30;23.20;;;;;;;5.74;100.00;97785.59;109882;1249;61361;-73
2023/11/12 02:35:36;;;;;;;24.90;20.60;;;;;;;5.71;100.00;97786.67;109843;1249;64219;-74
2023/11/12 02:38:06;;;;;;;24.90;21.20;;;;;;;5.68;100.00;97788.77;109876;1250;59835;-74
2023/11/12 02:40:33;;;;;;;28.50;23.30;;;;;;;5.67;100.00;97788.70;109843;1249;59825;-74
2023/11/12 02:43:03;;;;;;;28.10;24.20;;;;;;;5.65;100.00;97788.08;109500;1250;59742;-74
2023/11/12 02:45:30;;;;;;;25.60;22.90;;;;;;;5.65;100.00;97790.90;109861;1251;60134;-74
2023/11/12 02:47:56;;;;;;;25.10;22.50;;;;;;;5.65;100.00;97791.66;109851;1251;65118;-74
2023/11/12 02:50:34;;;;;;;27.60;23.80;;;;;;;5.63;100.00;97790.91;109852;1250;59788;-74
2023/11/12 02:53:04;;;;;;;25.10;22.40;;;;;;;5.61;100.00;97792.09;109858;1249;59653;-74
2023/11/12 02:55:32;;;;;;;26.80;23.20;;;;;;;5.59;100.00;97794.70;109540;1250;65675;-74
2023/11/12 02:58:00;;;;;;;25.20;22.60;;;;;;;5.57;100.00;97799.07;109570;1249;60205;-74
2023/11/12 03:00:33;;;;;;;25.60;22.20;;;;;;;5.55;100.00;97803.41;109863;1250;62509;-74
2023/11/12 03:03:01;;;;;;;25.40;20.40;;;;;;;5.53;100.00;97803.16;109854;1250;59861;-74
2023/11/12 03:05:29;;;;;;;24.20;21.10;;;;;;;5.52;100.00;97800.08;109891;1249;59911;-74
2023/11/12 03:07:57;;;;;;;23.10;20.70;;;;;;;5.52;100.00;97805.05;109869;1250;65683;-74
2023/11/12 03:10:25;;;;;;;24.00;21.50;;;;;;;5.52;100.00;97807.31;109811;1250;59914;-74
2023/11/12 03:12:51;;;;;;;24.60;21.20;;;;;;;5.50;100.00;97811.09;109825;1250;64085;-74
2023/11/12 03:15:18;;;;;;;27.60;22.60;;;;;;;5.50;100.00;97813.77;109843;1249;59895;-74
2023/11/12 03:17:45;;;;;;;24.90;22.10;;;;;;;5.49;100.00;97818.40;109862;1250;59780;-74
2023/11/12 03:20:14;;;;;;;24.70;21.90;;;;;;;5.47;100.00;97820.98;109861;1250;65439;-73
2023/11/12 03:22:40;;;;;;;27.00;21.70;;;;;;;5.45;100.00;97822.70;109862;1250;59919;-74
2023/11/12 03:25:09;;;;;;;26.30;22.00;;;;;;;5.44;100.00;97828.20;109857;1250;64790;-74
2023/11/12 03:27:36;;;;;;;25.10;21.90;;;;;;;5.45;100.00;97825.89;109870;1250;59797;-74
2023/11/12 03:30:04;;;;;;;23.90;21.20;;;;;;;5.44;100.00;97831.55;109823;1249;59862;-73
2023/11/12 03:32:30;;;;;;;23.70;20.70;;;;;;;5.44;100.00;97830.23;109846;1250;65385;-73
2023/11/12 03:34:57;;;;;;;25.00;21.20;;;;;;;5.43;100.00;97830.98;109929;1250;59826;-74
2023/11/12 03:37:24;;;;;;;22.50;20.10;;;;;;;5.41;100.00;97830.70;109404;1249;64061;-74
2023/11/12 03:39:51;;;;;;;24.70;20.60;;;;;;;5.39;100.00;97834.02;109821;1249;59764;-74
2023/11/12 03:42:18;;;;;;;22.10;19.80;;;;;;;5.40;100.00;97831.91;109839;1249;59883;-74
2023/11/12 03:44:46;;;;;;;24.70;21.60;;;;;;;5.40;100.00;97833.83;109893;1250;65610;-74
2023/11/12 03:47:13;;;;;;;23.90;20.60;;;;;;;5.39;100.00;97834.73;109909;1250;59964;-74
2023/11/12 03:49:40;;;;;;;27.70;23.20;;;;;;;5.39;100.00;97837.20;109875;1250;62502;-74
2023/11/12 03:52:07;;;;;;;25.20;21.90;;;;;;;5.39;100.00;97835.62;109873;1250;59783;-74
2023/11/12 03:54:35;;;;;;;24.60;21.90;;;;;;;5.39;100.00;97838.28;109836;1250;59778;-74
2023/11/12 03:57:03;;;;;;;25.40;22.00;;;;;;;5.37;100.00;97841.36;109842;1250;65325;-74
2023/11/12 03:59:29;;;;;;;27.50;24.20;;;;;;;5.37;100.00;97840.70;109869;1250;59848;-74
2023/11/12 04:01:56;;;;;;;29.00;24.40;;;;;;;5.35;100.00;97838.70;109823;1250;62548;-74
2023/11/12 04:04:22;;;;;;;28.70;25.60;;;;;;;5.33;100.00;97839.18;109869;1250;60057;-74
2023/11/12 04:06:49;;;;;;;24.90;22.30;;;;;;;5.33;100.00;97839.92;109878;1249;59709;-74
2023/11/12 04:09:16;;;;;;;25.70;22.90;;;;;;;5.31;100.00;97835.98;109870;1249;66895;-74
2023/11/12 04:11:42;;;;;;;33.00;27.10;;;;;;;5.30;100.00;97832.66;109839;1251;60033;-74
2023/11/12 04:14:09;;;;;;;27.60;24.30;;;;;;;5.31;100.00;97830.67;109844;1250;64101;-74
2023/11/12 04:16:36;;;;;;;26.50;23.10;;;;;;;5.33;100.00;97834.23;109831;1250;60044;-74
2023/11/12 04:19:03;;;;;;;27.70;24.60;;;;;;;5.35;100.00;97834.67;109877;1249;59822;-74
2023/11/12 04:21:30;;;;;;;25.30;22.30;;;;;;;5.35;100.00;97838.35;109826;1249;66751;-74
2023/11/12 04:23:58;;;;;;;24.60;22.00;;;;;;;5.35;100.00;97838.86;109890;1249;60103;-74
2023/11/12 04:26:24;;;;;;;19.90;17.90;;;;;;;5.36;100.00;97838.45;109850;1250;64075;-75
2023/11/12 04:28:51;;;;;;;19.10;17.20;;;;;;;5.35;100.00;97841.71;109843;1249;59850;-75
2023/11/12 04:31:18;;;;;;;17.90;16.10;;;;;;;5.33;100.00;97844.31;109849;1250;59854;-75
2023/11/12 04:33:46;;;;;;;21.00;18.90;;;;;;;5.32;100.00;97848.05;109842;1250;59774;-75
2023/11/12 04:36:14;;;;;;;22.60;20.10;;;;;;;5.31;100.00;97851.61;109851;1250;68638;-74
2023/11/12 04:38:41;;;;;;;22.00;19.20;;;;;;;5.31;100.00;97855.17;109857;1250;65210;-75
2023/11/12 04:41:11;;;;;;;21.60;19.40;;;;;;;5.30;100.00;97857.91;109486;1250;59887;-74
2023/11/12 04:43:40;;;;;;;20.70;18.50;;;;;;;5.30;100.00;97856.83;109849;1249;59854;-75
2023/11/12 04:46:06;;;;;;;21.10;18.80;;;;;;;5.30;100.00;97858.39;109885;1249;66886;-74
2023/11/12 04:48:33;;;;;;;22.60;20.20;;;;;;;5.30;100.00;97856.66;109847;1250;59759;-74
2023/11/12 04:51:00;;;;;;;21.50;18.20;;;;;;;5.29;100.00;97860.22;109839;1250;63085;-74
2023/11/12 04:53:28;;;;;;;20.50;18.40;;;;;;;5.27;100.00;97862.48;109820;1250;59784;-75
2023/11/12 04:55:54;;;;;;;21.20;18.90;;;;;;;5.26;100.00;97864.09;109863;1249;59779;-75
2023/11/12 04:58:21;;;;;;;19.90;17.30;;;;;;;5.26;100.00;97864.96;109906;1249;66550;-75
2023/11/12 05:00:47;;;;;;;21.10;18.90;;;;;;;5.25;100.00;97869.80;109872;1249;59758;-75
2023/11/12 05:03:14;;;;;;;19.60;17.60;;;;;;;5.23;100.00;97872.88;109823;1250;64903;-75
2023/11/12 05:05:41;;;;;;;20.50;18.40;;;;;;;5.22;100.00;97873.32;109886;1250;59845;-75
2023/11/12 05:08:08;;;;;;;20.90;18.60;;;;;;;5.21;100.00;97880.77;109879;1250;59666;-75
2023/11/12 05:10:35;;;;;;;23.20;20.00;;;;;;;5.20;100.00;97881.91;109525;1249;65572;-75
2023/11/12 05:13:01;;;;;;;24.20;21.70;;;;;;;5.20;100.00;97882.09;109812;1251;59796;-75
2023/11/12 05:15:28;;;;;;;21.90;19.40;;;;;;;5.20;100.00;97888.10;109874;1249;65323;-75
2023/11/12 05:17:54;;;;;;;25.40;22.40;;;;;;;5.19;100.00;97887.59;109846;1250;60097;-75
2023/11/12 05:20:21;;;;;;;28.20;24.60;;;;;;;5.18;100.00;97888.74;109858;1249;59844;-74
2023/11/12 05:22:48;;;;;;;29.70;25.30;;;;;;;5.17;100.00;97892.34;109887;1251;59892;-75
2023/11/12 05:25:15;;;;;;;28.40;23.70;;;;;;;5.15;100.00;97892.98;109871;1250;60327;-75
2023/11/12 05:27:42;;;;;;;25.80;23.00;;;;;;;5.14;100.00;97893.20;109886;1250;62495;-75
2023/11/12 05:30:09;;;;;;;24.20;21.60;;;;;;;5.13;100.00;97896.58;109845;1249;59760;-75
2023/11/12 05:32:35;;;;;;;28.00;24.20;;;;;;;5.13;100.00;97901.55;109829;1251;59826;-74
2023/11/12 05:35:02;;;;;;;26.50;22.90;;;;;;;5.11;100.00;97904.64;109556;1249;66974;-75
2023/11/12 05:37:29;;;;;;;28.50;23.40;;;;;;;5.11;100.00;97906.44;109424;1250;59876;-75
2023/11/12 05:39:55;;;;;;;26.80;23.50;;;;;;;5.12;100.00;97912.20;109828;1251;64131;-75
2023/11/12 05:42:22;;;;;;;25.70;22.60;;;;;;;5.12;100.00;97911.34;109425;1249;59864;-75
2023/11/12 05:44:48;;;;;;;27.20;22.30;;;;;;;5.12;100.00;97913.39;109862;1250;60014;-74
2023/11/12 05:47:15;;;;;;;26.30;23.10;;;;;;;5.12;100.00;97913.80;109861;1249;59921;-75
2023/11/12 05:49:42;;;;;;;30.20;24.20;;;;;;;5.12;100.00;97919.21;109865;1250;59849;-75
2023/11/12 05:52:09;;;;;;;27.30;22.20;;;;;;;5.13;100.00;97921.83;109856;1250;72582;-74
2023/11/12 05:54:36;;;;;;;24.80;21.60;;;;;;;5.13;100.00;97926.92;109535;1250;59845;-74
2023/11/12 05:57:03;;;;;;;30.20;22.80;;;;;;;5.14;100.00;97927.38;109811;1250;59743;-74
2023/11/12 05:59:29;;;;;;;24.70;20.70;;;;;;;5.14;100.00;97932.50;109852;1250;66560;-74
2023/11/12 06:01:56;;;;;;;25.00;21.10;;;;;;;5.13;100.00;97932.52;109884;1250;60056;-75
2023/11/12 06:04:22;;;;;;;21.60;17.90;;;;;;;5.13;100.00;97943.30;109790;1249;59821;-73
2023/11/12 06:06:49;;;;;;;22.30;19.90;;;;;;;5.11;100.00;97947.78;109803;1251;60034;-73
2023/11/12 06:09:17;;;;;;;21.70;18.00;;;;;;;5.09;100.00;97951.08;109886;1250;59925;-74
2023/11/12 06:11:43;;;;;;;24.40;20.80;;;;;;;5.08;100.00;97950.77;109837;1251;66840;-74
2023/11/12 06:14:10;;;;;;;25.90;21.50;;;;;;;5.09;100.00;97951.80;109883;1250;59926;-74
2023/11/12 06:16:37;;;;;;;24.80;20.70;;;;;;;5.11;100.00;97952.91;109511;1251;64041;-75
2023/11/12 06:19:03;;;;;;;22.70;18.00;;;;;;;5.13;100.00;97954.89;109853;1251;60013;-75
2023/11/12 06:21:30;;;;;;;25.00;21.40;;;;;;;5.14;100.00;97957.12;109852;1249;59776;-74
2023/11/12 06:23:56;;;;;;;23.90;20.40;;;;;;;5.14;100.00;97964.52;109059;1250;1002157;-75
2023/11/12 06:26:23;;;;;;;26.40;22.50;;;;;;;5.14;100.00;97965.90;109419;1251;60332;-74
2023/11/12 06:28:49;;;;;;;26.50;22.20;;;;;;;5.14;100.00;97972.62;109822;1251;71754;-74
2023/11/12 06:31:16;;;;;;;29.10;22.90;;;;;;;5.14;100.00;97972.95;109803;1249;59774;-74
2023/11/12 06:33:43;;;;;;;28.90;24.30;;;;;;;5.13;100.00;97974.65;109854;1249;59884;-74
2023/11/12 06:36:13;;;;;;;24.80;21.60;;;;;;;5.12;100.00;97977.65;109850;1251;66854;-74
2023/11/12 06:38:41;;;;;;;23.80;19.40;;;;;;;5.13;100.00;97982.19;109824;1250;60184;-74
2023/11/12 06:41:10;;;;;;;26.80;21.00;;;;;;;5.13;100.00;97981.28;109843;1251;64055;-75
2023/11/12 06:43:37;;;;;;;26.10;21.80;;;;;;;5.14;100.00;97984.42;109801;1250;59816;-75
2023/11/12 06:46:05;;;;;;;22.00;19.60;;;;;;;5.15;100.00;97986.45;109890;1251;59853;-75
2023/11/12 06:48:32;;;;;;;27.00;22.20;;;;;;;5.16;100.00;97988.17;109567;1255;66913;-75
2023/11/12 06:50:59;;;;;;;25.40;20.80;;;;;;;5.17;100.00;97989.48;109837;1251;59779;-75
2023/11/12 06:53:25;;;;;;;24.20;21.20;;;;;;;5.19;100.00;97991.17;109803;1249;64340;-75
2023/11/12 06:55:52;;;;;;;23.20;19.40;;;;;;;5.19;100.00;97993.06;109521;1249;59824;-74
2023/11/12 06:58:19;;;;;;;22.30;19.20;;;;;;;5.19;100.00;97997.46;109872;1249;59927;-74
2023/11/12 07:00:46;;;;;;;21.50;19.20;;;;;;;5.20;100.00;97999.17;109834;1250;67118;-75
2023/11/12 07:03:12;;;;;;;20.40;18.20;;;;;;;5.21;100.00;98003.69;109814;1250;60061;-75
2023/11/12 07:05:40;;;;;;;20.90;18.60;;;;;;;5.21;100.00;98003.33;109862;1251;64082;-75
2023/11/12 07:08:06;;;;;;;21.40;18.70;;;;;;;5.20;100.00;98005.86;109836;1250;59711;-75
2023/11/12 07:10:34;;;;;;;22.30;19.60;;;;;;;5.19;100.00;98007.16;109816;1252;59826;-75
2023/11/12 07:13:00;;;;;;;22.60;20.10;;;;;;;5.21;100.00;98008.45;109836;1251;65301;-75
2023/11/12 07:15:27;;;;;;;24.20;19.50;;;;;;;5.21;100.00;98005.80;109839;1249;60121;-74
2023/11/12 07:17:54;;;;;;;22.40;19.90;;;;;;;5.21;100.00;98013.20;109840;1249;64157;-75
2023/11/12 07:20:20;;;;;;;23.10;19.90;;;;;;;5.20;100.00;98015.02;109498;1249;59815;-73
2023/11/12 07:22:49;;;;;;;24.30;20.60;;;;;;;5.19;100.00;98017.54;109814;1251;60022;-73
2023/11/12 07:25:16;;;;;;;24.90;21.30;;;;;;;5.19;100.00;98015.80;109822;1251;66806;-74
2023/11/12 07:27:44;;;;;;;22.70;19.70;;;;;;;5.21;100.00;98017.97;109857;1251;68840;-74
2023/11/12 07:30:11;;;;;;;24.30;21.20;;;;;;;5.21;100.00;98020.77;109814;1251;63908;-74
2023/11/12 07:32:37;;;;;;;23.40;18.90;;;;;;;5.22;100.00;98021.42;109787;1249;59770;-74
2023/11/12 07:35:04;;;;;;;25.20;21.00;;;;;;;5.23;100.00;98021.01;109847;1250;59793;-74
2023/11/12 07:37:31;;;;;;;23.50;20.40;;;;;;;5.24;100.00;98018.65;109845;1250;65295;-74
2023/11/12 07:39:57;;;;;;;25.00;21.30;;;;;;;5.26;100.00;98023.25;109849;1250;59730;-74
2023/11/12 07:42:24;;;;;;;24.00;20.00;;;;;;;5.31;100.00;98025.27;109826;1251;62482;-74
2023/11/12 07:44:50;;;;;;;24.40;20.00;;;;;;;5.36;100.00;98029.92;109833;1250;59757;-74
2023/11/12 07:47:17;;;;;;;22.90;18.40;;;;;;;5.40;100.00;98034.28;109451;1250;59816;-74
2023/11/12 07:49:44;;;;;;;24.20;19.80;;;;;;;5.42;100.00;98034.80;109821;1251;65457;-75
2023/11/12 07:52:10;;;;;;;22.50;18.80;;;;;;;5.45;100.00;98039.56;109826;1249;59765;-75
2023/11/12 07:54:37;;;;;;;19.30;17.10;;;;;;;5.48;100.00;98038.34;109787;1251;59892;-74
2023/11/12 07:57:03;;;;;;;19.00;16.90;;;;;;;5.51;100.00;98039.95;109808;1249;59810;-75
2023/11/12 07:59:30;;;;;;;18.00;15.70;;;;;;;5.55;100.00;98037.23;109820;1250;59677;-75
2023/11/12 08:01:57;;;;;;;19.00;16.40;;;;;;;5.59;100.00;98041.73;109821;1253;65612;-75
2023/11/12 08:04:23;;;;;;;23.50;18.20;;;;;;;5.61;100.00;98039.84;109821;1249;60955;-75
2023/11/12 08:06:50;;;;;;;20.80;18.40;;;;;;;5.61;100.00;98043.65;109808;1250;62531;-75
2023/11/12 08:09:16;;;;;;;18.20;16.20;;;;;;;5.64;100.00;98048.58;109790;1251;59783;-75
2023/11/12 08:11:43;;;;;;;19.50;15.80;;;;;;;5.68;100.00;98054.00;109831;1249;59899;-75
2023/11/12 08:14:10;;;;;;;16.00;14.40;;;;;;;5.70;100.00;98056.71;109854;1250;66945;-75
2023/11/12 08:16:36;;;;;;;16.60;14.00;;;;;;;5.69;100.00;98056.40;109821;1250;59970;-75
2023/11/12 08:19:03;;;;;;;16.80;14.40;;;;;;;5.68;100.00;98061.55;109774;1251;63718;-75
2023/11/12 08:21:30;;;;;;;14.30;12.80;;;;;;;5.65;100.00;98062.09;109812;1252;60516;-75
2023/11/12 08:23:56;;;;;;;13.30;11.90;;;;;;;5.60;100.00;98063.48;109831;1250;59794;-74
2023/11/12 08:26:23;;;;;;;13.90;12.50;;;;;;;5.57;100.00;98067.05;109563;1251;66567;-74
2023/11/12 08:28:51;;;;;;;13.70;12.10;;;;;;;5.55;100.00;98071.71;109835;1250;61009;-74
2023/11/12 08:31:18;;;;;;;12.00;10.80;;;;;;;5.56;100.00;98074.87;109865;1250;62577;-74
2023/11/12 08:33:44;;;;;;;12.60;11.10;;;;;;;5.54;100.00;98076.02;109414;1251;59806;-75
2023/11/12 08:36:11;;;;;;;11.10;10.00;;;;;;;5.55;100.00;98081.11;109784;1250;60073;-74
2023/11/12 08:38:37;;;;;;;15.50;13.60;;;;;;;5.55;100.00;98084.45;109843;1250;66776;-75
2023/11/12 08:41:05;;;;;;;21.90;16.00;;;;;;;5.56;100.00;98087.36;109823;1251;59817;-75
2023/11/12 08:43:32;;;;;;;21.90;16.10;;;;;;;5.58;100.00;98088.80;109564;1250;64063;-75
2023/11/12 08:45:59;;;;;;;17.50;13.30;;;;;;;5.60;100.00;98089.02;109782;1251;59756;-75
2023/11/12 08:48:31;;;;;;;15.60;12.00;;;;;;;5.64;100.00;98090.70;109813;1249;60024;-75
2023/11/12 08:50:59;;;;;;;13.10;11.70;;;;;;;5.69;100.00;98094.16;109855;1249;68136;-74
2023/11/12 08:53:27;;;;;;;17.00;14.40;;;;;;;5.72;100.00;98092.53;109805;1250;69730;-74
2023/11/12 08:55:53;;;;;;;13.10;11.70;;;;;;;5.75;100.00;98092.38;109793;1251;64153;-74
2023/11/12 08:58:21;;;;;;;12.40;11.20;;;;;;;5.81;100.00;98099.21;109413;1251;59860;-74
2023/11/12 09:00:48;;;;;;;13.20;11.90;;;;;;;5.84;100.00;98104.11;109827;1250;60117;-74
2023/11/12 09:03:14;;;;;;;14.50;13.10;;;;;;;5.90;100.00;98103.57;109538;1251;67118;-74
2023/11/12 09:05:41;;;;;;;12.80;11.40;;;;;;;6.00;100.00;98105.64;109785;1253;59873;-75
2023/11/12 09:08:08;;;;;;;10.50;9.50;;;;;;;6.10;100.00;98105.35;109783;1251;59920;-75
2023/11/12 09:10:34;;;;;;;13.00;10.70;;;;;;;6.17;100.00;98110.90;109685;1250;147791;-74
2023/11/12 09:13:09;;;;;;;12.30;10.60;;;;;;;6.25;100.00;98110.80;109840;1250;59753;-75
2023/11/12 09:15:36;;;;;;;11.10;9.70;;;;;;;6.31;100.00;98112.32;109805;1250;67771;-75
2023/11/12 09:18:03;;;;;;;9.90;8.90;;;;;;;6.37;100.00;98113.65;109785;1250;60233;-75
2023/11/12 09:20:29;;;;;;;11.20;10.00;;;;;;;6.44;100.00;98117.34;109847;1250;64084;-74
2023/11/12 09:22:56;;;;;;;13.90;10.90;;;;;;;6.53;100.00;98116.58;109795;1251;59820;-74
2023/11/12 09:25:22;;;;;;;16.90;14.10;;;;;;;6.63;100.00;98119.29;109838;1250;60221;-74
2023/11/12 09:27:49;;;;;;;13.70;11.90;;;;;;;6.73;100.00;98121.27;109790;1251;65601;-74
2023/11/12 09:30:17;;;;;;;12.00;10.70;;;;;;;6.83;100.00;98121.86;109547;1251;61971;-75
2023/11/12 09:32:43;;;;;;;14.10;11.10;;;;;;;6.96;100.00;98118.32;109804;1249;64003;-75
2023/11/12 09:35:10;;;;;;;11.70;10.50;;;;;;;7.12;100.00;98118.16;109797;1250;59807;-75
2023/11/12 09:37:37;;;;;;;12.50;10.70;;;;;;;7.17;100.00;98116.74;109782;1249;59837;-74
2023/11/12 09:40:10;;;;;;;16.40;11.20;;;;;;;7.22;100.00;98117.66;109840;1251;66993;-75
2023/11/12 09:42:48;;;;;;;16.70;11.00;;;;;;;7.32;100.00;98120.72;109834;1251;69720;-74
2023/11/12 09:45:17;;;;;;;14.00;11.50;;;;;;;7.40;100.00;98120.30;109792;1250;63793;-74
2023/11/12 09:47:54;;;;;;;14.40;10.80;;;;;;;7.49;100.00;98123.06;109762;1249;59862;-74
2023/11/12 09:50:22;;;;;;;11.10;9.40;;;;;;;7.60;100.00;98120.02;109789;1250;59758;-74
2023/11/12 09:52:50;;;;;;;13.20;10.30;;;;;;;7.69;100.00;98119.19;109818;1251;66820;-74
2023/11/12 09:55:18;;;;;;;14.80;11.10;;;;;;;7.78;100.00;98120.03;109774;1249;59793;-74
2023/11/12 09:57:47;;;;;;;13.80;11.40;;;;;;;7.85;100.00;98118.62;109782;1249;62487;-74
2023/11/12 10:00:16;;;;;;;14.00;11.10;;;;;;;7.96;100.00;98116.96;109791;1251;59840;-75
2023/11/12 10:02:46;;;;;;;12.10;10.80;;;;;;;8.14;100.00;98115.55;109868;1250;59762;-74
2023/11/12 10:05:14;;;;;;;;;;;;;;;8.29;100.00;98111.23;109863;1250;65374;-74
2023/11/12 10:07:41;;;;;;;12.90;10.80;;;;;;;8.43;100.00;98111.90;109849;1250;60122;-74
2023/11/12 10:10:30;;;;;;;13.10;11.50;;;;;;;8.45;100.00;98113.16;109591;1251;64971;-74
2023/11/12 10:12:58;;;;;;;10.60;9.40;;;;;;;8.45;100.00;98115.82;109537;1249;59862;-75
2023/11/12 10:15:30;;;;;;;11.40;10.20;;;;;;;8.38;100.00;98118.63;109572;1251;59701;-75
2023/11/12 10:17:57;;;;;;;11.30;10.20;;;;;;;8.26;100.00;98119.11;109815;1249;65493;-75
2023/11/12 10:20:26;;;;;;;11.50;10.30;;;;;;;8.21;100.00;98121.79;109809;1251;60105;-74
2023/11/12 10:22:54;;;;;;;14.80;11.80;;;;;;;8.16;100.00;98120.20;109782;1250;62565;-74
2023/11/12 10:25:43;;;;;;;13.10;10.70;;;;;;;8.15;100.00;98121.14;109534;1256;60202;-73
2023/11/12 10:28:11;;;;;;;11.70;10.60;;;;;;;8.23;100.00;98122.52;109799;1249;60013;-74
2023/11/12 10:30:40;;;;;;;10.90;9.90;;;;;;;8.26;100.00;98122.83;109784;1251;67232;-74
2023/11/12 10:33:26;;;;;;;12.30;10.80;;;;;;;8.31;100.00;98117.00;109808;1249;59808;-75
2023/11/12 10:35:55;;;;;;;13.50;11.00;;;;;;;8.29;100.00;98118.88;109557;1251;62713;-74
2023/11/12 10:38:23;;;;;;;11.90;10.80;;;;;;;8.32;100.00;98115.50;109811;1251;59827;-75
2023/11/12 10:41:04;;;;;;;11.70;10.60;;;;;;;8.35;100.00;98113.18;109524;1250;59825;-75
2023/11/12 10:43:32;;;;;;;12.70;11.50;;;;;;;8.29;100.00;98110.05;109789;1249;65703;-75
2023/11/12 10:46:01;;;;;;;13.10;11.90;;;;;;;8.22;100.00;98109.47;109830;1251;61165;-73
2023/11/12 10:48:31;;;;;;;11.60;10.30;;;;;;;8.18;100.00;98108.88;109791;1251;64057;-73
2023/11/12 10:51:00;;;;;;;12.50;11.20;;;;;;;8.19;100.00;98116.27;109547;1250;59817;-74
2023/11/12 10:53:29;;;;;;;9.30;8.50;;;;;;;8.19;100.00;98119.63;109790;1251;60168;-74
2023/11/12 10:55:59;;;;;;;9.50;8.60;;;;;;;8.20;100.00;98124.13;109814;1250;66694;-75
2023/11/12 10:58:28;;;;;;;10.50;9.70;;;;;;;8.21;100.00;98121.61;109810;1251;59953;-75
2023/11/12 11:00:58;;;;;;;10.50;9.50;;;;;;;8.21;100.00;98125.65;109579;1250;63913;-74
2023/11/12 11:03:28;;;;;;;9.60;8.70;;;;;;;8.26;100.00;98120.72;109563;1251;59750;-74
2023/11/12 11:05:56;;;;;;;8.60;8.00;;;;;;;8.31;100.00;98118.37;109640;1249;59993;-75
2023/11/12 11:08:30;;;;;;;9.70;8.80;;;;;;;8.38;100.00;98122.52;109815;1249;65319;-74
2023/11/12 11:10:59;;;;;;;11.50;10.40;;;;;;;8.48;100.00;98119.39;109829;1251;60164;-75